Etusivu
METAR-TAF:

METAR-TAF

Lentoasemat :

San Sebastiánin lentoasema

San Sebastián, Espanja

Leveyspiiri: 43-21N, Pituuspiiri: 001-48W, korkeus merenpinnasta: 5 m

Tämänhetkinen sää

Tämä raportti tehtiin 20 minuuttia sitten, kello 11.00 UTC
Tuuli 11 kn lounaasta, vaihdellen etelän ja lännen välillä
Lämpötila 15°C
Kosteus 51%
Ilmanpaine 1005 hPa
Näkyvyys 10 km tai enemmän
ei pilviä alle 1500 m:ssä eikä cumulonimbus-pilviä

METAR: LESO 211100Z 22011KT 190V260 CAVOK 15/05 Q1005

Aika: 12:20 (11:20 UTC)

Sääennuste

Tämä raportti tehtiin 6 tuntia ja 20 minuuttia sitten, kello 05.00 UTC
Ennuste voimassa 21. päivästä klo 06 UTC - 22. päivään klo 06 UTC
Tuuli 9 kn lännestä/lounaasta
Näkyvyys 10 km tai enemmän
ei pilviä alle 1500 m:ssä eikä cumulonimbus-pilviä

TAF: LESO 210500Z 2106/2206 24009KT CAVOK TX16/2114Z TN08/2106Z

Säähavainnot ja -ennusteet yli 4000 lentoasemalta (METAR- ja TAF-raportit).

Käytössä olevat sääasemat on merkitty karttaan keltaisilla ja punaisilla pisteillä.

Aseta hiiri pisteen päälle nähdäksesi sääaseman nimen.

Klikkaa sitten nähdäksesi säähavainnot ja -ennusteet.

Kartan vaihtaminen: klikkaa mustalla rastilla varustettuja vihreitä pisteitä, niin voit zoomata sisään; viivalla varustettua vihreää pistettä, niin voit zoomata ulos tai vihreitä nuolia, niin pääset viereisille kartoille.


METAR-TAF: